Port Colborne, Canada
Current Conditions -  °F | °C
As of 8:53 AM on Friday 19 Dec 2014 (Local Time) from KIAG Reporting Station
Light Snow Light Snow  
Wind Chill: -9°   Ceiling: 1100
Heat Index: -3°   Visibility: 6mi
Dew Point: -6°   Wind: 12mph
Humidity: 84%   Direction: 300°WNW
Pressure: 30.17"   Gusts: NA
Location:  42.89°N, 79.25°W
Report Text: KIAG 191353Z 30010KT 6SM -SN BKN011 OVC019 M03/M06 A3017 RMK AO2 SLP234 P0000 T10331056
Loading
Personal Weather Stations






























Interactive Weather Map New forecast layout! Learn more

10-Day Weather Forecast

Advertisements
Track Severe Weather on mobile